createdAt,value
2019-03-08T00:02:51.921Z,51.26
2019-03-08T00:07:54.219Z,51.51
2019-03-08T00:12:56.323Z,51.61
2019-03-08T00:17:58.433Z,51.92
2019-03-08T00:23:00.872Z,51.87
2019-03-08T00:28:02.957Z,51.59
2019-03-08T00:33:05.028Z,51.23
2019-03-08T00:38:07.129Z,51.08
2019-03-08T00:43:09.171Z,51.02
2019-03-08T00:48:11.262Z,51.03
2019-03-08T00:53:13.302Z,51.21
2019-03-08T00:58:15.350Z,51.51
2019-03-08T01:03:17.403Z,51.43
2019-03-08T01:08:19.473Z,51.49
2019-03-08T01:13:21.539Z,51.58
2019-03-08T01:18:23.652Z,51.56
2019-03-08T01:23:25.718Z,51.75
2019-03-08T01:28:28.105Z,51.69
2019-03-08T01:33:30.198Z,51.64
2019-03-08T01:38:32.322Z,51.58
2019-03-08T01:43:34.457Z,51.54
2019-03-08T01:48:36.592Z,51.61
2019-03-08T01:53:38.905Z,51.58
2019-03-08T01:58:41.378Z,51.55
2019-03-08T02:03:43.417Z,51.61
2019-03-08T02:08:45.498Z,51.65
2019-03-08T02:13:47.560Z,51.66
2019-03-08T02:18:51.912Z,51.63
2019-03-08T02:23:54.004Z,51.66
2019-03-08T02:28:56.176Z,51.85
2019-03-08T02:34:00.462Z,51.92
2019-03-08T02:39:04.551Z,51.99
2019-03-08T02:44:06.662Z,52.44
2019-03-08T02:49:08.726Z,52.45
2019-03-08T02:54:10.860Z,52.65
2019-03-08T02:59:15.243Z,52.77
2019-03-08T03:04:17.353Z,52.87
2019-03-08T03:09:19.534Z,52.70
2019-03-08T03:14:21.590Z,52.69
2019-03-08T03:19:23.689Z,52.62
2019-03-08T03:24:25.901Z,52.42
2019-03-08T03:29:28.064Z,52.21
2019-03-08T03:34:32.548Z,52.08
2019-03-08T03:39:34.600Z,51.86
2019-03-08T03:44:36.546Z,51.80
2019-03-08T03:49:38.658Z,51.61
2019-03-08T03:54:40.776Z,51.55
2019-03-08T03:59:42.819Z,51.61
2019-03-08T04:04:44.997Z,51.65
2019-03-08T04:09:47.090Z,51.84
2019-03-08T04:14:49.182Z,51.95
2019-03-08T04:19:53.126Z,52.03
2019-03-08T04:24:55.735Z,52.00
2019-03-08T04:29:57.832Z,51.86
2019-03-08T04:34:59.980Z,51.81
2019-03-08T04:40:02.087Z,51.96
2019-03-08T04:45:04.868Z,52.04
2019-03-08T04:50:08.093Z,52.24
2019-03-08T04:55:11.525Z,52.02
2019-03-08T05:00:15.317Z,51.93
2019-03-08T05:05:17.427Z,51.71
2019-03-08T05:10:19.715Z,51.48
2019-03-08T05:15:21.757Z,51.21
2019-03-08T05:20:23.770Z,50.82
2019-03-08T05:25:25.885Z,50.52
2019-03-08T05:30:28.189Z,50.47
2019-03-08T05:35:30.260Z,50.65
2019-03-08T05:40:32.343Z,50.52
2019-03-08T05:45:34.398Z,50.45
2019-03-08T05:50:36.480Z,50.14
2019-03-08T05:55:38.512Z,49.80
2019-03-08T06:00:40.560Z,49.50
2019-03-08T06:05:44.431Z,49.16
2019-03-08T06:10:46.525Z,48.80
2019-03-08T06:15:48.670Z,48.23
2019-03-08T06:20:50.725Z,47.85
2019-03-08T06:25:52.826Z,47.20
2019-03-08T06:30:54.905Z,47.00
2019-03-08T06:35:56.984Z,46.66
2019-03-08T06:40:59.046Z,46.43
2019-03-08T06:46:01.166Z,46.60
2019-03-08T06:51:03.241Z,46.63
2019-03-08T06:56:05.514Z,46.49
2019-03-08T07:01:10.525Z,46.33
2019-03-08T07:06:12.662Z,46.26
2019-03-08T07:11:14.714Z,46.18
2019-03-08T07:16:16.752Z,45.57
2019-03-08T07:21:26.657Z,44.89
2019-03-08T07:26:39.325Z,43.38
2019-03-08T07:32:12.948Z,43.01
2019-03-08T07:37:33.894Z,42.76
2019-03-08T07:42:54.111Z,42.97
2019-03-08T07:48:14.319Z,43.38
2019-03-08T07:53:23.680Z,43.55
2019-03-08T07:59:00.495Z,43.90
2019-03-08T08:04:37.287Z,44.00
2019-03-08T08:10:01.861Z,44.30
2019-03-08T08:15:27.307Z,44.51
2019-03-08T08:20:51.962Z,44.85
2019-03-08T08:26:31.885Z,44.99
2019-03-08T08:32:11.442Z,45.28
2019-03-08T08:37:22.128Z,45.44
2019-03-08T08:42:33.941Z,45.72
2019-03-08T08:48:01.888Z,46.03
2019-03-08T08:53:11.490Z,45.98
2019-03-08T08:58:38.911Z,46.47
2019-03-08T09:04:12.526Z,46.62
2019-03-08T09:09:37.091Z,47.59
2019-03-08T09:15:09.036Z,47.74
2019-03-08T09:20:30.779Z,48.34
2019-03-08T09:25:55.357Z,48.96
2019-03-08T09:31:32.103Z,49.59
2019-03-08T09:37:02.833Z,50.39
2019-03-08T09:42:27.586Z,50.40
2019-03-08T09:47:42.208Z,50.99
2019-03-08T09:53:03.907Z,50.94
2019-03-08T09:58:31.547Z,50.83
2019-03-08T10:03:58.665Z,50.73
2019-03-08T10:09:29.138Z,50.37
2019-03-08T10:14:57.109Z,49.54
2019-03-08T10:20:09.255Z,48.80
2019-03-08T10:25:31.150Z,48.32
2019-03-08T10:30:43.446Z,48.01
2019-03-08T10:36:25.150Z,47.87
2019-03-08T10:41:35.348Z,47.73
2019-03-08T10:47:06.024Z,47.46
2019-03-08T10:52:21.756Z,46.50
2019-03-08T10:57:40.934Z,45.25
2019-03-08T11:03:02.605Z,44.73
2019-03-08T11:08:29.691Z,44.66
2019-03-08T11:13:48.163Z,44.62
2019-03-08T11:19:09.167Z,44.49
2019-03-08T11:24:33.813Z,43.96
2019-03-08T11:29:57.859Z,43.36
2019-03-08T11:35:28.631Z,43.24
2019-03-08T11:40:57.109Z,43.05
2019-03-08T11:46:08.457Z,42.84
2019-03-08T11:51:38.803Z,43.23
2019-03-08T11:56:59.015Z,43.43
2019-03-08T12:02:38.863Z,43.80
2019-03-08T12:08:01.998Z,43.66
2019-03-08T12:13:21.173Z,44.52
2019-03-08T12:18:45.467Z,44.88
2019-03-08T12:24:07.172Z,44.95
2019-03-08T12:29:14.820Z,47.56
2019-03-08T12:34:42.350Z,47.61
2019-03-08T12:39:52.677Z,47.14
2019-03-08T12:45:14.460Z,46.73
2019-03-08T12:50:22.375Z,46.83
2019-03-08T12:55:35.404Z,47.17
2019-03-08T13:00:50.337Z,46.58
2019-03-08T13:06:00.943Z,45.47
2019-03-08T13:11:02.998Z,45.21
2019-03-08T13:16:05.074Z,45.06
2019-03-08T13:21:07.175Z,45.21
2019-03-08T13:26:09.207Z,45.39
2019-03-08T13:31:11.336Z,45.60
2019-03-08T13:36:13.397Z,46.83
2019-03-08T13:41:15.498Z,46.95
2019-03-08T13:46:17.636Z,46.80
2019-03-08T13:51:19.665Z,47.03
2019-03-08T13:56:21.725Z,47.20
2019-03-08T14:01:23.988Z,46.88
2019-03-08T14:06:26.087Z,46.79
2019-03-08T14:11:28.148Z,46.25
2019-03-08T14:16:30.232Z,46.28
2019-03-08T14:21:32.320Z,46.40
2019-03-08T14:26:34.384Z,46.29
2019-03-08T14:31:45.447Z,45.67
2019-03-08T14:36:46.384Z,46.26
2019-03-08T14:42:23.103Z,46.53
2019-03-08T14:47:33.475Z,46.72
2019-03-08T14:52:35.040Z,46.84
2019-03-08T14:57:37.122Z,46.67
2019-03-08T15:02:39.492Z,46.50
2019-03-08T15:07:42.133Z,46.57
2019-03-08T15:12:49.007Z,46.94
2019-03-08T15:17:49.741Z,47.20
2019-03-08T15:22:52.358Z,47.54
2019-03-08T15:27:54.436Z,47.46
2019-03-08T15:32:56.592Z,47.28
2019-03-08T15:37:58.716Z,47.42
2019-03-08T15:43:00.777Z,47.44
2019-03-08T15:48:03.303Z,47.21
2019-03-08T15:53:05.404Z,47.27
2019-03-08T15:58:09.909Z,47.60
2019-03-08T16:03:12.031Z,47.45
2019-03-08T16:08:14.094Z,47.27
2019-03-08T16:13:16.136Z,47.33
2019-03-08T16:18:20.331Z,47.40
2019-03-08T16:23:22.423Z,47.06
2019-03-08T16:28:24.499Z,46.42
2019-03-08T16:33:35.646Z,46.04
2019-03-08T16:38:57.342Z,45.94
2019-03-08T16:44:15.904Z,46.53
2019-03-08T16:49:24.595Z,47.16
2019-03-08T16:54:44.819Z,47.63
2019-03-08T17:00:09.117Z,47.81
2019-03-08T17:05:29.562Z,48.16
2019-03-08T17:10:51.252Z,48.44
2019-03-08T17:16:11.653Z,48.74
2019-03-08T17:21:48.247Z,48.96
2019-03-08T17:26:56.894Z,49.18
2019-03-08T17:32:17.297Z,49.65
2019-03-08T17:37:33.077Z,49.74
2019-03-08T17:42:53.478Z,49.70
2019-03-08T17:48:07.833Z,49.33
2019-03-08T17:53:28.190Z,48.87
2019-03-08T17:58:48.304Z,48.52
2019-03-08T18:03:56.287Z,47.86
2019-03-08T18:09:10.160Z,47.45
2019-03-08T18:14:32.255Z,46.90
2019-03-08T18:20:02.981Z,46.78
2019-03-08T18:25:14.104Z,46.57
2019-03-08T18:30:38.594Z,46.45
2019-03-08T18:35:55.338Z,46.07
2019-03-08T18:41:09.067Z,46.42
2019-03-08T18:46:30.759Z,46.21
2019-03-08T18:52:01.260Z,45.87
2019-03-08T18:57:17.095Z,45.80
2019-03-08T19:02:30.163Z,45.70
2019-03-08T19:08:10.141Z,45.59
2019-03-08T19:13:32.731Z,45.56
2019-03-08T19:19:09.483Z,45.55
2019-03-08T19:24:22.611Z,45.59
2019-03-08T19:29:49.991Z,45.69
2019-03-08T19:35:05.270Z,45.88
2019-03-08T19:40:36.630Z,46.08
2019-03-08T19:45:58.684Z,46.16
2019-03-08T19:51:35.420Z,46.34
2019-03-08T19:56:55.787Z,46.46
2019-03-08T20:02:15.785Z,46.66
2019-03-08T20:07:43.052Z,47.01
2019-03-08T20:13:00.502Z,46.96
2019-03-08T20:18:37.222Z,47.00
2019-03-08T20:23:46.051Z,47.11
2019-03-08T20:29:02.948Z,47.81
2019-03-08T20:34:15.433Z,48.19
2019-03-08T20:39:27.586Z,48.60
2019-03-08T20:44:37.095Z,48.77
2019-03-08T20:49:39.277Z,48.98
2019-03-08T20:54:41.433Z,49.15
2019-03-08T20:59:43.510Z,49.25
2019-03-08T21:04:45.580Z,49.32
2019-03-08T21:09:47.779Z,49.65
2019-03-08T21:14:49.871Z,49.70
2019-03-08T21:19:52.455Z,49.89
2019-03-08T21:24:54.523Z,50.21
2019-03-08T21:29:56.689Z,50.47
2019-03-08T21:34:58.766Z,50.73
2019-03-08T21:40:00.928Z,50.92
2019-03-08T21:45:03.375Z,51.37
2019-03-08T21:50:06.806Z,52.02
2019-03-08T21:55:09.261Z,52.16
2019-03-08T22:00:13.982Z,52.29
2019-03-08T22:05:20.229Z,52.66
2019-03-08T22:10:41.902Z,53.06
2019-03-08T22:15:43.985Z,53.29
2019-03-08T22:20:46.111Z,53.47
2019-03-08T22:25:48.173Z,53.66
2019-03-08T22:30:50.282Z,53.60
2019-03-08T22:35:52.751Z,53.60
2019-03-08T22:40:57.032Z,53.41
2019-03-08T22:45:59.290Z,53.60
2019-03-08T22:51:01.375Z,53.94
2019-03-08T22:56:03.501Z,54.09
2019-03-08T23:01:11.641Z,54.20
2019-03-08T23:06:13.669Z,54.08
2019-03-08T23:11:15.829Z,54.39
2019-03-08T23:16:17.891Z,54.19
2019-03-08T23:21:20.032Z,54.62
2019-03-08T23:26:22.117Z,55.09
2019-03-08T23:31:40.864Z,55.38
2019-03-08T23:36:42.989Z,55.63
2019-03-08T23:41:45.030Z,55.57
2019-03-08T23:46:47.085Z,55.48
2019-03-08T23:51:49.433Z,55.31
2019-03-08T23:56:51.560Z,55.15
